sensor_id;sensor_type;location;lat;lon;timestamp;pressure;altitude;pressure_sealevel;temperature;humidity
26657;BME280;14279;50.010;8.260;2022-08-19T00:01:17;100029.84;;;22.99;57.70
26657;BME280;14279;50.010;8.260;2022-08-19T00:03:43;100030.84;;;22.97;57.81
26657;BME280;14279;50.010;8.260;2022-08-19T00:06:08;100039.22;;;23.11;57.12
26657;BME280;14279;50.010;8.260;2022-08-19T00:08:35;100041.59;;;23.22;57.45
26657;BME280;14279;50.010;8.260;2022-08-19T00:11:00;100048.06;;;23.28;57.68
26657;BME280;14279;50.010;8.260;2022-08-19T00:13:26;100054.38;;;23.27;57.21
26657;BME280;14279;50.010;8.260;2022-08-19T00:15:54;100049.03;;;23.19;57.42
26657;BME280;14279;50.010;8.260;2022-08-19T00:18:19;100042.03;;;23.18;57.19
26657;BME280;14279;50.010;8.260;2022-08-19T00:20:44;100041.88;;;23.11;57.59
26657;BME280;14279;50.010;8.260;2022-08-19T00:23:10;100040.84;;;23.04;58.13
26657;BME280;14279;50.010;8.260;2022-08-19T00:25:35;100038.94;;;22.88;58.89
26657;BME280;14279;50.010;8.260;2022-08-19T00:28:01;100038.63;;;22.91;58.43
26657;BME280;14279;50.010;8.260;2022-08-19T00:30:27;100026.53;;;22.96;57.74
26657;BME280;14279;50.010;8.260;2022-08-19T00:32:53;100032.69;;;22.97;57.47
26657;BME280;14279;50.010;8.260;2022-08-19T00:35:20;100026.53;;;22.96;57.50
26657;BME280;14279;50.010;8.260;2022-08-19T00:37:48;100025.84;;;22.86;57.81
26657;BME280;14279;50.010;8.260;2022-08-19T00:40:14;100024.88;;;22.95;57.50
26657;BME280;14279;50.010;8.260;2022-08-19T00:42:40;100022.16;;;22.87;57.66
26657;BME280;14279;50.010;8.260;2022-08-19T00:45:12;100030.13;;;22.79;57.64
26657;BME280;14279;50.010;8.260;2022-08-19T00:47:37;100030.47;;;22.84;57.67
26657;BME280;14279;50.010;8.260;2022-08-19T00:50:03;100024.75;;;22.71;58.05
26657;BME280;14279;50.010;8.260;2022-08-19T00:52:33;100029.31;;;22.87;57.56
26657;BME280;14279;50.010;8.260;2022-08-19T00:55:00;100017.34;;;22.74;57.98
26657;BME280;14279;50.010;8.260;2022-08-19T00:57:30;100017.66;;;22.71;58.09
26657;BME280;14279;50.010;8.260;2022-08-19T00:59:58;100008.81;;;22.62;58.59
26657;BME280;14279;50.010;8.260;2022-08-19T01:02:25;99999.84;;;22.63;58.48
26657;BME280;14279;50.010;8.260;2022-08-19T01:04:51;99999.59;;;22.75;57.93
26657;BME280;14279;50.010;8.260;2022-08-19T01:07:17;99991.25;;;22.61;58.40
26657;BME280;14279;50.010;8.260;2022-08-19T01:09:43;99978.97;;;22.69;58.61
26657;BME280;14279;50.010;8.260;2022-08-19T01:12:08;99983.94;;;22.63;58.57
26657;BME280;14279;50.010;8.260;2022-08-19T01:14:35;99986.06;;;22.60;58.83
26657;BME280;14279;50.010;8.260;2022-08-19T01:17:01;99984.41;;;22.50;59.21
26657;BME280;14279;50.010;8.260;2022-08-19T01:19:37;99982.88;;;22.48;59.00
26657;BME280;14279;50.010;8.260;2022-08-19T01:22:16;99981.75;;;22.50;58.76
26657;BME280;14279;50.010;8.260;2022-08-19T01:24:45;99983.75;;;22.57;58.90
26657;BME280;14279;50.010;8.260;2022-08-19T01:27:10;99976.59;;;22.49;59.10
26657;BME280;14279;50.010;8.260;2022-08-19T01:29:39;99978.25;;;22.50;58.84
26657;BME280;14279;50.010;8.260;2022-08-19T01:32:05;99979.78;;;22.61;58.50
26657;BME280;14279;50.010;8.260;2022-08-19T01:34:31;99982.50;;;22.43;59.15
26657;BME280;14279;50.010;8.260;2022-08-19T01:36:56;99983.53;;;22.24;59.50
26657;BME280;14279;50.010;8.260;2022-08-19T01:39:24;99975.84;;;22.39;59.50
26657;BME280;14279;50.010;8.260;2022-08-19T01:41:50;99982.38;;;22.44;59.19
26657;BME280;14279;50.010;8.260;2022-08-19T01:44:19;99979.63;;;22.36;59.38
26657;BME280;14279;50.010;8.260;2022-08-19T01:46:51;99990.41;;;22.34;60.02
26657;BME280;14279;50.010;8.260;2022-08-19T01:49:20;100002.72;;;22.44;59.56
26657;BME280;14279;50.010;8.260;2022-08-19T01:51:46;99998.19;;;22.36;59.42
26657;BME280;14279;50.010;8.260;2022-08-19T01:54:15;100005.84;;;22.39;59.57
26657;BME280;14279;50.010;8.260;2022-08-19T01:56:40;100006.31;;;22.34;59.77
26657;BME280;14279;50.010;8.260;2022-08-19T01:59:12;99990.72;;;22.31;59.72
26657;BME280;14279;50.010;8.260;2022-08-19T02:05:00;99987.31;;;22.21;59.96
26657;BME280;14279;50.010;8.260;2022-08-19T02:07:26;99991.84;;;22.29;60.04
26657;BME280;14279;50.010;8.260;2022-08-19T02:09:53;99996.75;;;22.15;60.36
26657;BME280;14279;50.010;8.260;2022-08-19T02:12:19;100005.38;;;22.17;60.15
26657;BME280;14279;50.010;8.260;2022-08-19T02:14:45;100008.53;;;22.21;60.13
26657;BME280;14279;50.010;8.260;2022-08-19T02:17:11;100001.88;;;22.17;60.24
26657;BME280;14279;50.010;8.260;2022-08-19T02:19:36;100004.44;;;22.27;59.94
26657;BME280;14279;50.010;8.260;2022-08-19T02:22:01;100007.53;;;22.22;60.02
26657;BME280;14279;50.010;8.260;2022-08-19T02:24:26;100010.38;;;22.20;60.28
26657;BME280;14279;50.010;8.260;2022-08-19T02:26:52;100000.31;;;22.06;60.43
26657;BME280;14279;50.010;8.260;2022-08-19T02:29:17;100009.25;;;22.05;60.64
26657;BME280;14279;50.010;8.260;2022-08-19T02:31:42;100006.84;;;21.94;61.07
26657;BME280;14279;50.010;8.260;2022-08-19T02:34:08;100002.09;;;21.79;61.53
26657;BME280;14279;50.010;8.260;2022-08-19T02:36:33;100005.69;;;21.96;61.05
26657;BME280;14279;50.010;8.260;2022-08-19T02:38:59;100012.75;;;21.87;61.11
26657;BME280;14279;50.010;8.260;2022-08-19T02:41:28;100011.09;;;21.86;61.28
26657;BME280;14279;50.010;8.260;2022-08-19T02:43:55;100018.56;;;21.91;61.28
26657;BME280;14279;50.010;8.260;2022-08-19T02:46:27;100017.25;;;21.87;61.19
26657;BME280;14279;50.010;8.260;2022-08-19T02:48:55;100009.59;;;21.84;61.39
26657;BME280;14279;50.010;8.260;2022-08-19T02:51:24;100009.31;;;21.69;61.92
26657;BME280;14279;50.010;8.260;2022-08-19T02:53:50;100017.28;;;21.59;62.25
26657;BME280;14279;50.010;8.260;2022-08-19T02:56:15;100015.13;;;21.72;62.36
26657;BME280;14279;50.010;8.260;2022-08-19T02:58:41;100018.66;;;21.81;61.72
26657;BME280;14279;50.010;8.260;2022-08-19T03:01:08;100029.03;;;21.74;61.86
26657;BME280;14279;50.010;8.260;2022-08-19T03:03:34;100021.31;;;21.81;61.85
26657;BME280;14279;50.010;8.260;2022-08-19T03:06:18;100021.56;;;21.70;62.04
26657;BME280;14279;50.010;8.260;2022-08-19T03:08:45;100006.66;;;21.69;62.35
26657;BME280;14279;50.010;8.260;2022-08-19T03:11:20;100007.53;;;21.59;62.48
26657;BME280;14279;50.010;8.260;2022-08-19T03:13:47;100012.81;;;21.59;62.65
26657;BME280;14279;50.010;8.260;2022-08-19T03:16:14;100012.56;;;21.62;62.50
26657;BME280;14279;50.010;8.260;2022-08-19T03:18:40;100008.16;;;21.53;63.05
26657;BME280;14279;50.010;8.260;2022-08-19T03:21:06;100007.81;;;21.56;63.00
26657;BME280;14279;50.010;8.260;2022-08-19T03:23:32;100005.19;;;21.38;63.60
26657;BME280;14279;50.010;8.260;2022-08-19T03:25:58;100013.31;;;21.27;64.23
26657;BME280;14279;50.010;8.260;2022-08-19T03:28:23;100017.28;;;21.41;63.80
26657;BME280;14279;50.010;8.260;2022-08-19T03:30:57;100017.63;;;21.28;64.18
26657;BME280;14279;50.010;8.260;2022-08-19T03:33:25;100022.41;;;21.24;64.18
26657;BME280;14279;50.010;8.260;2022-08-19T03:38:26;100021.38;;;21.35;64.12
26657;BME280;14279;50.010;8.260;2022-08-19T03:40:51;100014.69;;;21.31;64.37
26657;BME280;14279;50.010;8.260;2022-08-19T03:43:16;100022.56;;;21.41;64.11
26657;BME280;14279;50.010;8.260;2022-08-19T03:45:43;100024.16;;;21.33;64.20
26657;BME280;14279;50.010;8.260;2022-08-19T03:48:08;100019.34;;;21.47;63.69
26657;BME280;14279;50.010;8.260;2022-08-19T03:50:38;100024.41;;;21.40;63.80
26657;BME280;14279;50.010;8.260;2022-08-19T03:53:04;100024.94;;;21.44;63.89
26657;BME280;14279;50.010;8.260;2022-08-19T03:55:29;100031.41;;;21.31;64.20
26657;BME280;14279;50.010;8.260;2022-08-19T03:57:55;100030.91;;;21.46;63.78
26657;BME280;14279;50.010;8.260;2022-08-19T04:00:21;100039.03;;;21.35;63.86
26657;BME280;14279;50.010;8.260;2022-08-19T04:02:46;100036.19;;;21.46;63.72
26657;BME280;14279;50.010;8.260;2022-08-19T04:05:12;100043.22;;;21.37;63.86
26657;BME280;14279;50.010;8.260;2022-08-19T04:07:39;100044.72;;;21.40;63.49
26657;BME280;14279;50.010;8.260;2022-08-19T04:10:04;100040.38;;;21.21;64.59
26657;BME280;14279;50.010;8.260;2022-08-19T04:12:30;100044.50;;;21.33;64.45
26657;BME280;14279;50.010;8.260;2022-08-19T04:14:55;100042.44;;;21.27;64.64
26657;BME280;14279;50.010;8.260;2022-08-19T04:17:20;100042.94;;;21.40;64.16
26657;BME280;14279;50.010;8.260;2022-08-19T04:19:47;100042.16;;;21.30;64.37
26657;BME280;14279;50.010;8.260;2022-08-19T04:22:12;100057.28;;;21.38;64.13
26657;BME280;14279;50.010;8.260;2022-08-19T04:24:38;100060.97;;;21.27;64.67
26657;BME280;14279;50.010;8.260;2022-08-19T04:27:04;100053.72;;;21.29;64.70
26657;BME280;14279;50.010;8.260;2022-08-19T04:29:30;100052.84;;;21.38;64.75
26657;BME280;14279;50.010;8.260;2022-08-19T04:31:56;100050.13;;;21.48;64.23
26657;BME280;14279;50.010;8.260;2022-08-19T04:34:23;100047.47;;;21.48;64.27
26657;BME280;14279;50.010;8.260;2022-08-19T04:36:49;100044.16;;;21.46;64.39
26657;BME280;14279;50.010;8.260;2022-08-19T04:39:27;100042.09;;;21.40;64.96
26657;BME280;14279;50.010;8.260;2022-08-19T04:42:13;100043.66;;;21.32;64.96
26657;BME280;14279;50.010;8.260;2022-08-19T04:44:57;100036.09;;;21.38;64.94
26657;BME280;14279;50.010;8.260;2022-08-19T04:47:23;100049.94;;;21.31;65.29
26657;BME280;14279;50.010;8.260;2022-08-19T04:49:49;100047.16;;;21.33;65.20
26657;BME280;14279;50.010;8.260;2022-08-19T04:52:14;100055.09;;;21.33;65.24
26657;BME280;14279;50.010;8.260;2022-08-19T04:54:39;100048.94;;;21.32;65.31
26657;BME280;14279;50.010;8.260;2022-08-19T04:57:06;100053.44;;;21.32;65.31
26657;BME280;14279;50.010;8.260;2022-08-19T04:59:33;100051.75;;;21.31;65.50
26657;BME280;14279;50.010;8.260;2022-08-19T05:02:07;100059.41;;;21.34;65.35
26657;BME280;14279;50.010;8.260;2022-08-19T05:04:32;100064.13;;;21.40;65.25
26657;BME280;14279;50.010;8.260;2022-08-19T05:06:58;100073.56;;;21.43;64.96
26657;BME280;14279;50.010;8.260;2022-08-19T05:09:31;100071.69;;;21.53;64.31
26657;BME280;14279;50.010;8.260;2022-08-19T05:12:00;100069.00;;;21.63;64.30
26657;BME280;14279;50.010;8.260;2022-08-19T05:14:25;100069.06;;;21.71;63.60
26657;BME280;14279;50.010;8.260;2022-08-19T05:16:50;100062.56;;;21.66;63.97
26657;BME280;14279;50.010;8.260;2022-08-19T05:22:43;100077.47;;;21.67;63.50
26657;BME280;14279;50.010;8.260;2022-08-19T05:25:16;100081.28;;;21.64;63.93
26657;BME280;14279;50.010;8.260;2022-08-19T05:27:43;100068.25;;;21.71;63.54
26657;BME280;14279;50.010;8.260;2022-08-19T05:30:10;100061.72;;;21.83;63.15
26657;BME280;14279;50.010;8.260;2022-08-19T05:32:37;100067.94;;;21.92;62.94
26657;BME280;14279;50.010;8.260;2022-08-19T05:35:04;100068.84;;;21.65;63.89
26657;BME280;14279;50.010;8.260;2022-08-19T05:37:29;100070.22;;;21.69;63.93
26657;BME280;14279;50.010;8.260;2022-08-19T05:39:54;100075.34;;;21.70;63.96
26657;BME280;14279;50.010;8.260;2022-08-19T05:42:20;100076.72;;;21.74;63.87
26657;BME280;14279;50.010;8.260;2022-08-19T05:44:47;100068.19;;;21.99;63.11
26657;BME280;14279;50.010;8.260;2022-08-19T05:47:14;100078.75;;;22.17;62.84
26657;BME280;14279;50.010;8.260;2022-08-19T05:49:40;100082.72;;;22.39;62.38
26657;BME280;14279;50.010;8.260;2022-08-19T05:52:09;100074.78;;;22.39;62.20
26657;BME280;14279;50.010;8.260;2022-08-19T05:54:37;100072.25;;;22.56;61.35
26657;BME280;14279;50.010;8.260;2022-08-19T05:57:05;100068.50;;;22.40;61.81
26657;BME280;14279;50.010;8.260;2022-08-19T05:59:34;100066.91;;;22.47;61.79
26657;BME280;14279;50.010;8.260;2022-08-19T06:02:06;100078.78;;;22.61;61.05
26657;BME280;14279;50.010;8.260;2022-08-19T06:04:31;100090.41;;;22.69;61.07
26657;BME280;14279;50.010;8.260;2022-08-19T06:06:59;100093.44;;;22.74;60.62
26657;BME280;14279;50.010;8.260;2022-08-19T06:09:26;100099.47;;;22.58;61.61
26657;BME280;14279;50.010;8.260;2022-08-19T06:11:53;100096.66;;;22.59;61.10
26657;BME280;14279;50.010;8.260;2022-08-19T06:14:27;100096.44;;;22.52;61.61
26657;BME280;14279;50.010;8.260;2022-08-19T06:16:53;100095.63;;;22.34;62.40
26657;BME280;14279;50.010;8.260;2022-08-19T06:19:19;100101.69;;;22.44;62.14
26657;BME280;14279;50.010;8.260;2022-08-19T06:21:47;100107.09;;;22.16;62.62
26657;BME280;14279;50.010;8.260;2022-08-19T06:26:59;100122.66;;;22.56;61.56
26657;BME280;14279;50.010;8.260;2022-08-19T06:29:26;100128.44;;;22.77;60.97
26657;BME280;14279;50.010;8.260;2022-08-19T06:31:54;100135.31;;;22.62;61.41
26657;BME280;14279;50.010;8.260;2022-08-19T06:34:21;100140.97;;;22.67;61.58
26657;BME280;14279;50.010;8.260;2022-08-19T06:36:48;100143.03;;;22.73;61.34
26657;BME280;14279;50.010;8.260;2022-08-19T06:39:26;100139.25;;;22.58;61.71
26657;BME280;14279;50.010;8.260;2022-08-19T06:41:57;100157.13;;;22.56;62.00
26657;BME280;14279;50.010;8.260;2022-08-19T06:44:24;100148.41;;;22.63;61.45
26657;BME280;14279;50.010;8.260;2022-08-19T06:46:52;100150.44;;;22.70;61.43
26657;BME280;14279;50.010;8.260;2022-08-19T06:49:17;100157.66;;;22.41;62.08
26657;BME280;14279;50.010;8.260;2022-08-19T06:51:44;100142.97;;;22.47;61.99
26657;BME280;14279;50.010;8.260;2022-08-19T06:54:12;100138.56;;;22.56;61.97
26657;BME280;14279;50.010;8.260;2022-08-19T06:56:38;100152.47;;;22.49;62.08
26657;BME280;14279;50.010;8.260;2022-08-19T06:59:09;100150.16;;;22.55;61.82
26657;BME280;14279;50.010;8.260;2022-08-19T07:01:36;100156.28;;;22.73;61.67
26657;BME280;14279;50.010;8.260;2022-08-19T07:04:05;100151.00;;;22.55;61.84
26657;BME280;14279;50.010;8.260;2022-08-19T07:06:31;100153.25;;;22.68;61.48
26657;BME280;14279;50.010;8.260;2022-08-19T07:08:57;100146.06;;;22.87;60.77
26657;BME280;14279;50.010;8.260;2022-08-19T07:11:23;100161.44;;;22.75;61.22
26657;BME280;14279;50.010;8.260;2022-08-19T07:13:48;100143.06;;;22.81;61.09
26657;BME280;14279;50.010;8.260;2022-08-19T07:16:17;100152.34;;;23.12;60.12
26657;BME280;14279;50.010;8.260;2022-08-19T07:18:48;100155.75;;;22.70;61.33
26657;BME280;14279;50.010;8.260;2022-08-19T07:21:24;100157.06;;;22.92;61.10
26657;BME280;14279;50.010;8.260;2022-08-19T07:23:53;100164.53;;;22.96;60.01
26657;BME280;14279;50.010;8.260;2022-08-19T07:26:24;100157.88;;;22.92;60.69
26657;BME280;14279;50.010;8.260;2022-08-19T07:28:50;100154.03;;;22.87;60.62
26657;BME280;14279;50.010;8.260;2022-08-19T07:31:21;100152.03;;;23.15;59.57
26657;BME280;14279;50.010;8.260;2022-08-19T07:33:48;100152.63;;;23.27;59.49
26657;BME280;14279;50.010;8.260;2022-08-19T07:36:17;100145.00;;;23.32;59.04
26657;BME280;14279;50.010;8.260;2022-08-19T07:38:50;100150.38;;;23.40;58.33
26657;BME280;14279;50.010;8.260;2022-08-19T07:41:19;100155.63;;;23.32;58.75
26657;BME280;14279;50.010;8.260;2022-08-19T07:43:48;100143.22;;;23.41;58.67
26657;BME280;14279;50.010;8.260;2022-08-19T07:46:15;100140.94;;;23.54;58.67
26657;BME280;14279;50.010;8.260;2022-08-19T07:48:44;100150.13;;;23.25;58.90
26657;BME280;14279;50.010;8.260;2022-08-19T07:51:18;100137.03;;;23.32;58.94
26657;BME280;14279;50.010;8.260;2022-08-19T07:54:20;100158.47;;;23.39;58.17
26657;BME280;14279;50.010;8.260;2022-08-19T07:56:52;100149.19;;;23.08;59.17
26657;BME280;14279;50.010;8.260;2022-08-19T07:59:18;100147.84;;;23.31;58.91
26657;BME280;14279;50.010;8.260;2022-08-19T08:01:45;100149.03;;;23.36;58.66
26657;BME280;14279;50.010;8.260;2022-08-19T08:04:12;100147.94;;;23.64;58.05
26657;BME280;14279;50.010;8.260;2022-08-19T08:06:56;100153.25;;;23.55;58.00
26657;BME280;14279;50.010;8.260;2022-08-19T08:09:42;100153.09;;;23.65;58.41
26657;BME280;14279;50.010;8.260;2022-08-19T08:12:24;100160.53;;;23.53;57.70
26657;BME280;14279;50.010;8.260;2022-08-19T08:14:55;100174.19;;;23.67;57.67
26657;BME280;14279;50.010;8.260;2022-08-19T08:17:24;100159.78;;;23.86;57.28
26657;BME280;14279;50.010;8.260;2022-08-19T08:19:51;100163.03;;;23.55;57.35
26657;BME280;14279;50.010;8.260;2022-08-19T08:22:19;100164.94;;;23.79;57.28
26657;BME280;14279;50.010;8.260;2022-08-19T08:25:18;100154.78;;;23.75;56.95
26657;BME280;14279;50.010;8.260;2022-08-19T08:27:46;100171.72;;;23.74;56.99
26657;BME280;14279;50.010;8.260;2022-08-19T08:30:17;100168.28;;;23.81;56.86
26657;BME280;14279;50.010;8.260;2022-08-19T08:32:43;100185.53;;;23.77;56.93
26657;BME280;14279;50.010;8.260;2022-08-19T08:35:16;100180.03;;;23.79;56.44
26657;BME280;14279;50.010;8.260;2022-08-19T08:37:43;100182.69;;;23.70;56.77
26657;BME280;14279;50.010;8.260;2022-08-19T08:40:22;100181.72;;;23.88;56.17
26657;BME280;14279;50.010;8.260;2022-08-19T08:42:57;100180.13;;;23.61;56.93
26657;BME280;14279;50.010;8.260;2022-08-19T08:45:26;100187.94;;;23.54;57.26
26657;BME280;14279;50.010;8.260;2022-08-19T08:47:53;100185.00;;;23.74;56.67
26657;BME280;14279;50.010;8.260;2022-08-19T08:50:40;100191.66;;;23.78;55.99
26657;BME280;14279;50.010;8.260;2022-08-19T08:53:07;100199.91;;;23.58;56.08
26657;BME280;14279;50.010;8.260;2022-08-19T08:55:33;100192.25;;;23.55;56.18
26657;BME280;14279;50.010;8.260;2022-08-19T08:58:09;100208.78;;;23.75;56.06
26657;BME280;14279;50.010;8.260;2022-08-19T09:00:41;100196.56;;;23.99;55.76
26657;BME280;14279;50.010;8.260;2022-08-19T09:03:25;100196.38;;;23.92;55.74
26657;BME280;14279;50.010;8.260;2022-08-19T10:42:08;100138.31;;;25.60;45.35
26657;BME280;14279;50.010;8.260;2022-08-19T10:44:35;100130.78;;;25.24;45.87
26657;BME280;14279;50.010;8.260;2022-08-19T10:47:02;100133.03;;;25.51;45.84
26657;BME280;14279;50.010;8.260;2022-08-19T10:49:37;100141.13;;;25.66;45.36
26657;BME280;14279;50.010;8.260;2022-08-19T11:16:30;100108.09;;;26.22;43.00
26657;BME280;14279;50.010;8.260;2022-08-19T11:19:34;100106.72;;;26.41;41.78
26657;BME280;14279;50.010;8.260;2022-08-19T11:22:00;100107.97;;;26.69;41.06
26657;BME280;14279;50.010;8.260;2022-08-19T11:24:28;100105.66;;;26.51;40.57
26657;BME280;14279;50.010;8.260;2022-08-19T11:27:00;100097.47;;;26.67;39.30
26657;BME280;14279;50.010;8.260;2022-08-19T11:29:33;100085.53;;;26.93;38.42
26657;BME280;14279;50.010;8.260;2022-08-19T11:32:08;100085.47;;;26.87;38.81
26657;BME280;14279;50.010;8.260;2022-08-19T11:34:39;100086.97;;;27.11;38.81
26657;BME280;14279;50.010;8.260;2022-08-19T11:37:05;100098.41;;;26.60;39.99
26657;BME280;14279;50.010;8.260;2022-08-19T11:39:32;100097.66;;;26.66;39.58
26657;BME280;14279;50.010;8.260;2022-08-19T11:45:19;100071.53;;;27.06;39.73
26657;BME280;14279;50.010;8.260;2022-08-19T11:50:18;100062.38;;;27.30;38.54
26657;BME280;14279;50.010;8.260;2022-08-19T11:53:38;100066.19;;;26.91;39.03
26657;BME280;14279;50.010;8.260;2022-08-19T11:55:56;100056.81;;;26.95;38.85
26657;BME280;14279;50.010;8.260;2022-08-19T11:58:21;100046.69;;;26.91;38.81
26657;BME280;14279;50.010;8.260;2022-08-19T12:00:47;100043.81;;;27.07;38.86
26657;BME280;14279;50.010;8.260;2022-08-19T12:03:14;100042.13;;;27.21;38.34
26657;BME280;14279;50.010;8.260;2022-08-19T12:05:40;100055.31;;;27.08;38.79
26657;BME280;14279;50.010;8.260;2022-08-19T12:08:06;100048.84;;;27.17;38.87
26657;BME280;14279;50.010;8.260;2022-08-19T12:11:08;100051.91;;;27.51;38.12
26657;BME280;14279;50.010;8.260;2022-08-19T12:14:25;100044.41;;;27.24;38.33
26657;BME280;14279;50.010;8.260;2022-08-19T12:16:57;100046.16;;;27.17;37.64
26657;BME280;14279;50.010;8.260;2022-08-19T12:19:25;100042.75;;;27.60;37.47
26657;BME280;14279;50.010;8.260;2022-08-19T12:22:03;100047.38;;;27.95;37.32
26657;BME280;14279;50.010;8.260;2022-08-19T12:24:37;100039.00;;;27.76;36.89
26657;BME280;14279;50.010;8.260;2022-08-19T12:27:02;100052.56;;;27.38;38.00
26657;BME280;14279;50.010;8.260;2022-08-19T12:29:28;100046.00;;;27.55;38.07
26657;BME280;14279;50.010;8.260;2022-08-19T12:32:23;100053.84;;;27.42;38.11
26657;BME280;14279;50.010;8.260;2022-08-19T12:35:09;100045.94;;;27.34;39.07
26657;BME280;14279;50.010;8.260;2022-08-19T12:37:36;100055.03;;;27.76;38.21
26657;BME280;14279;50.010;8.260;2022-08-19T12:40:01;100064.75;;;28.05;37.46
26657;BME280;14279;50.010;8.260;2022-08-19T12:42:47;100055.44;;;28.23;36.68
26657;BME280;14279;50.010;8.260;2022-08-19T12:45:29;100042.34;;;28.35;36.23
26657;BME280;14279;50.010;8.260;2022-08-19T12:47:54;100036.38;;;28.33;35.76
26657;BME280;14279;50.010;8.260;2022-08-19T12:50:20;100042.44;;;28.48;35.18
26657;BME280;14279;50.010;8.260;2022-08-19T12:52:46;100037.56;;;28.59;35.08
26657;BME280;14279;50.010;8.260;2022-08-19T12:55:13;100031.81;;;28.97;34.84
26657;BME280;14279;50.010;8.260;2022-08-19T12:57:42;100033.75;;;28.75;35.28
26657;BME280;14279;50.010;8.260;2022-08-19T13:00:10;100049.72;;;28.26;36.49
26657;BME280;14279;50.010;8.260;2022-08-19T13:02:39;100034.09;;;28.08;36.88
26657;BME280;14279;50.010;8.260;2022-08-19T13:05:08;100045.16;;;27.77;36.86
26657;BME280;14279;50.010;8.260;2022-08-19T13:07:33;100044.78;;;27.58;37.28
26657;BME280;14279;50.010;8.260;2022-08-19T13:10:00;100049.94;;;27.81;37.08
26657;BME280;14279;50.010;8.260;2022-08-19T13:12:25;100060.50;;;27.68;36.76
26657;BME280;14279;50.010;8.260;2022-08-19T13:14:52;100052.19;;;28.06;36.24
26657;BME280;14279;50.010;8.260;2022-08-19T13:17:17;100045.00;;;28.28;35.74
26657;BME280;14279;50.010;8.260;2022-08-19T13:19:42;100049.91;;;28.25;35.13
26657;BME280;14279;50.010;8.260;2022-08-19T13:22:07;100057.88;;;28.46;34.58
26657;BME280;14279;50.010;8.260;2022-08-19T13:24:33;100048.06;;;28.25;34.76
26657;BME280;14279;50.010;8.260;2022-08-19T13:26:59;100036.44;;;28.40;34.53
26657;BME280;14279;50.010;8.260;2022-08-19T13:29:25;100051.88;;;29.28;33.30
26657;BME280;14279;50.010;8.260;2022-08-19T13:32:09;100060.84;;;28.30;35.08
26657;BME280;14279;50.010;8.260;2022-08-19T13:34:52;100060.38;;;27.98;35.53
26657;BME280;14279;50.010;8.260;2022-08-19T13:37:18;100063.69;;;28.00;35.22
26657;BME280;14279;50.010;8.260;2022-08-19T13:40:03;100051.97;;;28.01;35.19
26657;BME280;14279;50.010;8.260;2022-08-19T13:43:04;100053.81;;;28.00;35.72
26657;BME280;14279;50.010;8.260;2022-08-19T13:45:31;100050.00;;;28.73;34.68
26657;BME280;14279;50.010;8.260;2022-08-19T13:47:59;100053.47;;;29.09;34.02
26657;BME280;14279;50.010;8.260;2022-08-19T13:50:30;100052.59;;;28.95;34.57
26657;BME280;14279;50.010;8.260;2022-08-19T13:53:00;100056.28;;;28.87;34.46
26657;BME280;14279;50.010;8.260;2022-08-19T13:55:53;100045.25;;;29.17;33.16
26657;BME280;14279;50.010;8.260;2022-08-19T13:58:21;100053.06;;;28.70;33.28
26657;BME280;14279;50.010;8.260;2022-08-19T14:01:05;100045.19;;;28.62;33.30
26657;BME280;14279;50.010;8.260;2022-08-19T14:03:33;100057.13;;;28.94;33.67
26657;BME280;14279;50.010;8.260;2022-08-19T14:06:08;100060.25;;;28.98;34.39
26657;BME280;14279;50.010;8.260;2022-08-19T14:08:34;100078.81;;;28.36;35.38
26657;BME280;14279;50.010;8.260;2022-08-19T14:11:04;100085.53;;;27.82;35.61
26657;BME280;14279;50.010;8.260;2022-08-19T14:13:29;100078.53;;;27.81;35.37
26657;BME280;14279;50.010;8.260;2022-08-19T14:15:55;100081.00;;;28.26;34.33
26657;BME280;14279;50.010;8.260;2022-08-19T14:18:21;100077.44;;;28.47;33.28
26657;BME280;14279;50.010;8.260;2022-08-19T14:20:46;100071.81;;;28.70;32.97
26657;BME280;14279;50.010;8.260;2022-08-19T14:23:12;100079.25;;;28.40;33.08
26657;BME280;14279;50.010;8.260;2022-08-19T14:25:38;100076.72;;;28.10;33.19
26657;BME280;14279;50.010;8.260;2022-08-19T14:28:04;100068.69;;;28.67;32.08
26657;BME280;14279;50.010;8.260;2022-08-19T14:30:31;100073.22;;;29.01;31.61
26657;BME280;14279;50.010;8.260;2022-08-19T14:32:59;100067.28;;;29.06;32.16
26657;BME280;14279;50.010;8.260;2022-08-19T14:35:27;100073.84;;;29.03;32.19
26657;BME280;14279;50.010;8.260;2022-08-19T14:37:52;100077.72;;;28.87;33.29
26657;BME280;14279;50.010;8.260;2022-08-19T14:40:22;100063.53;;;28.65;33.58
26657;BME280;14279;50.010;8.260;2022-08-19T14:42:51;100065.97;;;28.60;33.46
26657;BME280;14279;50.010;8.260;2022-08-19T14:45:16;100050.47;;;28.84;33.41
26657;BME280;14279;50.010;8.260;2022-08-19T14:47:42;100049.53;;;28.98;33.45
26657;BME280;14279;50.010;8.260;2022-08-19T14:50:09;100044.28;;;28.76;32.87
26657;BME280;14279;50.010;8.260;2022-08-19T14:52:34;100033.31;;;28.71;32.81
26657;BME280;14279;50.010;8.260;2022-08-19T14:55:00;100028.44;;;28.46;33.12
26657;BME280;14279;50.010;8.260;2022-08-19T14:57:26;100027.31;;;28.34;33.40
26657;BME280;14279;50.010;8.260;2022-08-19T14:59:51;100024.34;;;28.50;33.51
26657;BME280;14279;50.010;8.260;2022-08-19T15:02:17;100025.56;;;28.90;33.00
26657;BME280;14279;50.010;8.260;2022-08-19T15:04:42;100022.00;;;28.76;33.55
26657;BME280;14279;50.010;8.260;2022-08-19T15:07:09;100024.13;;;28.87;33.97
26657;BME280;14279;50.010;8.260;2022-08-19T15:09:34;100021.88;;;28.56;34.01
26657;BME280;14279;50.010;8.260;2022-08-19T15:12:00;100004.03;;;28.70;33.47
26657;BME280;14279;50.010;8.260;2022-08-19T15:14:28;99996.38;;;28.60;33.53
26657;BME280;14279;50.010;8.260;2022-08-19T15:16:57;100001.78;;;28.73;33.56
26657;BME280;14279;50.010;8.260;2022-08-19T15:19:25;99986.91;;;28.64;33.61